Time;durP1;ratioP1;P1;durP2;ratioP2;P2;SDS_P1;SDS_P2;PMS_P1;PMS_P2;Temp;Humidity;BMP_temperature;BMP_pressure;BME280_temperature;BME280_humidity;BME280_pressure;Samples;Min_cycle;Max_cycle;Signal;HPM_P1;HPM_P2
2022/05/27 00:01:44;;;;;;;22.30;6.07;;;;;;;;;;5033938;28;20174;-73
2022/05/27 00:04:09;;;;;;;14.93;4.47;;;;;;;;;;5032740;28;20193;-72
2022/05/27 00:06:34;;;;;;;18.48;4.32;;;;;;;;;;5044637;28;20268;-71
2022/05/27 00:08:59;;;;;;;15.25;4.72;;;;;;;;;;5050100;28;20705;-71
2022/05/27 00:11:24;;;;;;;17.63;5.25;;;;;;;;;;5052063;28;20662;-71
2022/05/27 00:13:53;;;;;;;20.70;6.00;;;;;;;;;;5047377;28;20201;-72
2022/05/27 00:16:18;;;;;;;16.23;5.72;;;;;;;;;;5044004;28;20204;-72
2022/05/27 00:18:43;;;;;;;16.58;4.82;;;;;;;;;;5048663;28;20646;-72
2022/05/27 00:21:09;;;;;;;16.83;5.15;;;;;;;;;;5046063;28;20174;-71
2022/05/27 00:23:36;;;;;;;5.78;2.78;;;;;;;;;;5047552;28;20757;-71
2022/05/27 00:26:01;;;;;;;5.60;2.58;;;;;;;;;;5026587;28;20174;-71
2022/05/27 00:28:26;;;;;;;6.32;3.10;;;;;;;;;;5047758;28;20288;-71
2022/05/27 00:30:52;;;;;;;5.82;2.70;;;;;;;;;;5046365;28;20178;-72
2022/05/27 00:33:18;;;;;;;11.85;4.55;;;;;;;;;;5049851;28;20213;-71
2022/05/27 00:35:43;;;;;;;8.95;4.25;;;;;;;;;;5049977;28;20180;-72
2022/05/27 00:38:08;;;;;;;6.83;3.30;;;;;;;;;;5050857;28;20185;-71
2022/05/27 00:40:35;;;;;;;5.93;3.72;;;;;;;;;;5050135;28;20462;-72
2022/05/27 00:43:00;;;;;;;10.75;4.78;;;;;;;;;;5044232;28;20193;-71
2022/05/27 00:45:26;;;;;;;13.70;5.68;;;;;;;;;;5040014;28;20242;-71
2022/05/27 00:47:56;;;;;;;13.57;4.53;;;;;;;;;;5042676;28;20223;-72
2022/05/27 00:50:25;;;;;;;13.57;5.00;;;;;;;;;;5051537;28;20212;-72
2022/05/27 00:52:50;;;;;;;20.23;5.40;;;;;;;;;;5047833;28;20209;-70
2022/05/27 00:55:17;;;;;;;12.43;4.50;;;;;;;;;;5050606;28;20236;-72
2022/05/27 00:57:48;;;;;;;18.83;5.63;;;;;;;;;;5026790;28;20643;-72
2022/05/27 01:00:16;;;;;;;14.98;5.32;;;;;;;;;;5048181;28;20201;-72
2022/05/27 01:02:42;;;;;;;17.02;5.70;;;;;;;;;;5049294;28;20225;-71
2022/05/27 01:05:08;;;;;;;14.55;5.50;;;;;;;;;;5048014;28;20205;-71
2022/05/27 01:07:33;;;;;;;11.30;4.28;;;;;;;;;;5029151;28;20169;-73
2022/05/27 01:10:00;;;;;;;22.65;6.05;;;;;;;;;;5037651;28;20235;-71
2022/05/27 01:12:30;;;;;;;12.63;4.82;;;;;;;;;;5045685;28;20230;-71
2022/05/27 01:14:58;;;;;;;14.55;4.30;;;;;;;;;;5047788;28;20220;-71
2022/05/27 01:17:42;;;;;;;13.95;4.03;;;;;;;;;;5043778;28;20597;-71
2022/05/27 01:20:19;;;;;;;13.35;5.90;;;;;;;;;;5047299;28;20204;-72
2022/05/27 01:22:53;;;;;;;10.07;3.78;;;;;;;;;;5042221;28;20606;-71
2022/05/27 01:25:18;;;;;;;11.88;3.95;;;;;;;;;;5049896;28;20247;-72
2022/05/27 01:27:43;;;;;;;6.18;3.78;;;;;;;;;;5048633;28;20186;-71
2022/05/27 01:30:17;;;;;;;8.95;4.45;;;;;;;;;;5044415;28;20426;-72
2022/05/27 01:32:46;;;;;;;10.95;3.55;;;;;;;;;;5035914;28;20205;-70
2022/05/27 01:35:18;;;;;;;11.32;4.82;;;;;;;;;;5050815;28;20208;-73
2022/05/27 01:37:52;;;;;;;11.93;3.33;;;;;;;;;;5043987;28;20181;-71
2022/05/27 01:40:23;;;;;;;11.27;3.60;;;;;;;;;;5040854;28;20201;-71
2022/05/27 01:42:55;;;;;;;8.02;3.38;;;;;;;;;;5041598;28;20663;-71
2022/05/27 01:45:20;;;;;;;9.57;3.47;;;;;;;;;;5051841;28;20220;-72
2022/05/27 01:47:48;;;;;;;10.68;3.47;;;;;;;;;;5047905;28;20209;-71
2022/05/27 01:50:26;;;;;;;9.73;3.33;;;;;;;;;;5029996;28;20431;-71
2022/05/27 01:52:53;;;;;;;8.00;2.95;;;;;;;;;;5045121;28;20295;-71
2022/05/27 01:55:36;;;;;;;12.38;5.30;;;;;;;;;;5047764;28;20192;-71
2022/05/27 01:58:04;;;;;;;8.05;3.60;;;;;;;;;;5047730;28;20177;-72
2022/05/27 02:00:29;;;;;;;14.02;4.82;;;;;;;;;;5048255;28;20214;-72
2022/05/27 02:02:58;;;;;;;11.13;3.28;;;;;;;;;;5047123;28;20205;-72
2022/05/27 02:05:30;;;;;;;14.20;4.93;;;;;;;;;;5047596;28;20178;-72
2022/05/27 02:08:01;;;;;;;11.05;3.70;;;;;;;;;;5047631;28;20665;-72
2022/05/27 02:10:32;;;;;;;12.30;3.65;;;;;;;;;;5046143;28;20209;-72
2022/05/27 02:13:00;;;;;;;6.15;3.08;;;;;;;;;;5049494;28;20761;-72
2022/05/27 02:15:37;;;;;;;10.70;3.80;;;;;;;;;;5045592;28;20667;-72
2022/05/27 02:18:21;;;;;;;10.27;4.05;;;;;;;;;;5048192;28;20180;-72
2022/05/27 02:20:49;;;;;;;10.77;4.05;;;;;;;;;;5045577;28;20710;-72
2022/05/27 02:23:22;;;;;;;11.38;5.38;;;;;;;;;;5040172;28;20246;-72
2022/05/27 02:25:48;;;;;;;11.90;4.80;;;;;;;;;;5043691;28;20209;-72
2022/05/27 02:28:17;;;;;;;11.60;4.57;;;;;;;;;;5044025;28;20524;-72
2022/05/27 02:30:44;;;;;;;10.65;4.60;;;;;;;;;;5048101;28;20231;-72
2022/05/27 02:36:00;;;;;;;10.77;4.80;;;;;;;;;;5044538;28;20189;-72
2022/05/27 02:38:27;;;;;;;13.85;4.80;;;;;;;;;;5046732;28;20197;-72
2022/05/27 02:41:00;;;;;;;12.68;5.88;;;;;;;;;;5048296;28;20205;-72
2022/05/27 02:43:44;;;;;;;13.52;6.20;;;;;;;;;;5046899;28;20213;-71
2022/05/27 02:46:09;;;;;;;15.32;5.30;;;;;;;;;;5022873;28;20178;-72
2022/05/27 02:48:42;;;;;;;12.32;5.30;;;;;;;;;;5047727;28;20185;-72
2022/05/27 02:51:10;;;;;;;14.40;5.40;;;;;;;;;;5046492;28;20423;-72
2022/05/27 02:53:55;;;;;;;14.88;5.32;;;;;;;;;;5051663;28;20224;-72
2022/05/27 02:56:22;;;;;;;16.42;7.25;;;;;;;;;;5044307;28;20175;-71
2022/05/27 02:58:48;;;;;;;15.73;5.90;;;;;;;;;;5051020;28;20193;-72
2022/05/27 03:01:13;;;;;;;9.45;5.38;;;;;;;;;;5050487;28;20220;-72
2022/05/27 03:03:39;;;;;;;18.85;7.22;;;;;;;;;;5029642;28;20232;-72
2022/05/27 03:06:10;;;;;;;11.38;6.05;;;;;;;;;;5024676;28;20169;-72
2022/05/27 03:08:38;;;;;;;13.38;5.68;;;;;;;;;;5049752;28;20236;-72
2022/05/27 03:11:09;;;;;;;21.80;6.43;;;;;;;;;;5048717;28;20237;-72
2022/05/27 03:13:44;;;;;;;13.90;6.03;;;;;;;;;;5047933;28;20795;-76
2022/05/27 03:16:22;;;;;;;21.10;5.50;;;;;;;;;;5028626;28;20179;-72
2022/05/27 03:18:47;;;;;;;13.43;5.28;;;;;;;;;;5048301;28;20231;-72
2022/05/27 03:21:18;;;;;;;15.50;6.10;;;;;;;;;;5045837;28;20186;-71
2022/05/27 03:23:50;;;;;;;14.00;5.20;;;;;;;;;;5047698;28;20444;-72
2022/05/27 03:26:15;;;;;;;15.73;5.55;;;;;;;;;;5047947;28;20184;-72
2022/05/27 03:28:47;;;;;;;16.23;5.63;;;;;;;;;;5033133;28;20178;-71
2022/05/27 03:31:23;;;;;;;18.48;6.10;;;;;;;;;;5052122;28;20190;-72
2022/05/27 03:33:54;;;;;;;18.05;6.18;;;;;;;;;;5050090;28;20193;-72
2022/05/27 03:36:19;;;;;;;17.08;6.28;;;;;;;;;;5048004;28;20585;-72
2022/05/27 03:38:59;;;;;;;21.08;6.93;;;;;;;;;;5052117;28;20204;-72
2022/05/27 03:41:41;;;;;;;18.30;5.65;;;;;;;;;;5031015;28;20668;-71
2022/05/27 03:44:06;;;;;;;66.13;8.10;;;;;;;;;;5049156;28;20237;-72
2022/05/27 03:46:36;;;;;;;17.10;6.20;;;;;;;;;;5051762;28;20212;-72
2022/05/27 03:49:02;;;;;;;17.17;6.07;;;;;;;;;;5052091;28;20694;-71
2022/05/27 03:51:29;;;;;;;14.60;6.65;;;;;;;;;;5051779;28;20178;-72
2022/05/27 03:54:03;;;;;;;22.13;6.03;;;;;;;;;;5050940;28;20259;-72
2022/05/27 03:56:29;;;;;;;16.23;6.78;;;;;;;;;;5051373;28;20192;-72
2022/05/27 03:58:54;;;;;;;18.15;6.55;;;;;;;;;;5050701;28;20552;-72
2022/05/27 04:01:23;;;;;;;12.07;5.95;;;;;;;;;;5033922;28;20182;-72
2022/05/27 04:03:48;;;;;;;18.75;6.15;;;;;;;;;;5052287;28;20200;-72
2022/05/27 04:06:13;;;;;;;16.20;6.47;;;;;;;;;;5048968;28;20178;-72
2022/05/27 04:08:38;;;;;;;17.40;5.20;;;;;;;;;;5052071;28;20273;-72
2022/05/27 04:11:03;;;;;;;17.97;5.83;;;;;;;;;;5050987;28;20184;-72
2022/05/27 04:13:28;;;;;;;17.85;5.07;;;;;;;;;;5048163;28;20452;-72
2022/05/27 04:15:54;;;;;;;16.50;5.68;;;;;;;;;;5048406;28;20178;-71
2022/05/27 04:18:19;;;;;;;14.63;4.80;;;;;;;;;;5050381;28;20193;-72
2022/05/27 04:20:44;;;;;;;15.57;6.53;;;;;;;;;;5046110;28;20520;-72
2022/05/27 04:23:11;;;;;;;17.57;5.70;;;;;;;;;;5048273;28;20454;-72
2022/05/27 04:25:36;;;;;;;14.85;4.65;;;;;;;;;;5046649;28;20427;-72
2022/05/27 04:28:02;;;;;;;11.15;5.00;;;;;;;;;;5049639;28;20623;-72
2022/05/27 04:30:27;;;;;;;17.08;5.28;;;;;;;;;;5050769;28;20441;-72
2022/05/27 04:32:52;;;;;;;15.02;5.43;;;;;;;;;;5050038;28;20247;-72
2022/05/27 04:35:17;;;;;;;13.43;4.53;;;;;;;;;;5047794;28;20265;-72
2022/05/27 04:37:42;;;;;;;10.45;4.18;;;;;;;;;;5049010;28;20419;-71
2022/05/27 04:40:08;;;;;;;12.85;4.40;;;;;;;;;;5051108;28;20731;-72
2022/05/27 04:42:33;;;;;;;11.05;4.15;;;;;;;;;;5046959;28;20239;-72
2022/05/27 04:44:58;;;;;;;7.03;3.92;;;;;;;;;;5051048;28;20182;-72
2022/05/27 04:47:23;;;;;;;11.65;4.40;;;;;;;;;;5050887;28;20174;-72
2022/05/27 04:49:51;;;;;;;7.63;3.70;;;;;;;;;;5046642;28;20174;-72
2022/05/27 04:52:30;;;;;;;13.93;3.65;;;;;;;;;;5046581;28;20711;-72
2022/05/27 04:54:56;;;;;;;10.77;4.63;;;;;;;;;;5047670;28;20864;-73
2022/05/27 04:57:30;;;;;;;11.02;3.78;;;;;;;;;;5049959;28;20182;-73
2022/05/27 04:59:55;;;;;;;8.85;3.22;;;;;;;;;;5022089;28;20210;-73
2022/05/27 05:02:21;;;;;;;6.10;3.55;;;;;;;;;;5045306;28;20239;-73
2022/05/27 05:04:47;;;;;;;6.82;3.78;;;;;;;;;;5048411;28;20244;-73
2022/05/27 05:07:13;;;;;;;9.60;3.30;;;;;;;;;;5048645;28;20659;-73
2022/05/27 05:09:40;;;;;;;6.68;2.63;;;;;;;;;;5049673;28;20257;-73
2022/05/27 05:12:06;;;;;;;10.02;2.75;;;;;;;;;;5050611;28;20177;-73
2022/05/27 05:14:31;;;;;;;11.85;2.92;;;;;;;;;;5044997;28;20650;-73
2022/05/27 05:16:57;;;;;;;10.82;3.75;;;;;;;;;;5044030;28;20227;-73
2022/05/27 05:19:22;;;;;;;10.10;3.22;;;;;;;;;;5046142;28;20201;-74
2022/05/27 05:21:47;;;;;;;8.43;2.75;;;;;;;;;;5046080;28;20184;-74
2022/05/27 05:24:12;;;;;;;12.40;3.05;;;;;;;;;;5045068;28;20263;-73
2022/05/27 05:26:38;;;;;;;8.75;3.20;;;;;;;;;;5046899;28;20247;-74
2022/05/27 05:29:05;;;;;;;4.80;2.70;;;;;;;;;;5047386;28;20226;-73
2022/05/27 05:31:31;;;;;;;8.05;2.45;;;;;;;;;;5048020;28;20193;-73
2022/05/27 05:33:59;;;;;;;8.30;2.70;;;;;;;;;;5031700;28;20208;-74
2022/05/27 05:36:25;;;;;;;6.22;2.53;;;;;;;;;;5048460;28;20813;-73
2022/05/27 05:38:50;;;;;;;5.80;2.60;;;;;;;;;;5047547;28;20256;-73
2022/05/27 05:41:26;;;;;;;5.25;2.58;;;;;;;;;;5045524;28;20173;-73
2022/05/27 05:43:51;;;;;;;7.32;2.97;;;;;;;;;;5028123;28;20192;-73
2022/05/27 05:46:16;;;;;;;6.90;2.47;;;;;;;;;;5048153;28;20173;-73
2022/05/27 05:48:42;;;;;;;9.67;2.30;;;;;;;;;;5045753;28;20802;-73
2022/05/27 05:51:07;;;;;;;6.82;2.10;;;;;;;;;;5047878;28;20429;-73
2022/05/27 05:53:32;;;;;;;7.93;2.30;;;;;;;;;;5048907;28;20601;-73
2022/05/27 05:55:58;;;;;;;6.93;2.55;;;;;;;;;;5047513;28;20197;-73
2022/05/27 05:58:23;;;;;;;8.88;2.67;;;;;;;;;;5048591;28;20569;-73
2022/05/27 06:00:49;;;;;;;6.43;2.10;;;;;;;;;;5044109;28;20202;-73
2022/05/27 06:03:14;;;;;;;8.90;2.53;;;;;;;;;;5049677;28;20438;-73
2022/05/27 06:05:42;;;;;;;8.63;2.17;;;;;;;;;;5041169;28;20286;-73
2022/05/27 06:08:07;;;;;;;10.38;2.20;;;;;;;;;;5028259;28;20170;-73
2022/05/27 06:10:33;;;;;;;5.20;2.20;;;;;;;;;;5048312;28;20182;-73
2022/05/27 06:12:58;;;;;;;8.32;3.10;;;;;;;;;;5038415;28;20197;-73
2022/05/27 06:15:23;;;;;;;8.73;2.50;;;;;;;;;;5041012;28;20185;-73
2022/05/27 06:17:48;;;;;;;6.10;2.42;;;;;;;;;;5039631;28;20206;-73
2022/05/27 06:20:14;;;;;;;6.68;2.10;;;;;;;;;;5040038;28;20198;-72
2022/05/27 06:22:39;;;;;;;7.82;2.22;;;;;;;;;;5038241;28;20694;-72
2022/05/27 06:25:04;;;;;;;12.73;2.63;;;;;;;;;;5038532;28;20177;-72
2022/05/27 06:27:30;;;;;;;9.27;2.10;;;;;;;;;;5039640;28;20200;-72
2022/05/27 06:35:23;;;;;;;4.75;2.05;;;;;;;;;;5044269;28;20266;-72
2022/05/27 06:37:49;;;;;;;7.88;2.25;;;;;;;;;;5045417;28;20204;-72
2022/05/27 06:40:14;;;;;;;6.32;2.08;;;;;;;;;;5050421;28;20686;-72
2022/05/27 06:42:40;;;;;;;10.18;2.30;;;;;;;;;;5028087;28;20206;-74
2022/05/27 06:45:06;;;;;;;5.45;1.63;;;;;;;;;;5028525;28;20185;-73
2022/05/27 06:47:31;;;;;;;5.15;2.08;;;;;;;;;;5045379;28;20174;-73
2022/05/27 06:49:56;;;;;;;9.18;2.22;;;;;;;;;;5049669;28;20565;-73
2022/05/27 06:52:21;;;;;;;7.00;2.45;;;;;;;;;;5051241;28;20565;-73
2022/05/27 06:54:46;;;;;;;7.97;2.33;;;;;;;;;;5052629;28;20186;-73
2022/05/27 06:57:12;;;;;;;7.07;2.20;;;;;;;;;;5039879;28;20205;-73
2022/05/27 06:59:37;;;;;;;11.25;2.25;;;;;;;;;;5051894;28;20288;-73
2022/05/27 07:02:03;;;;;;;7.93;2.33;;;;;;;;;;5033774;28;20273;-73
2022/05/27 07:04:28;;;;;;;9.02;2.10;;;;;;;;;;5052845;28;20557;-73
2022/05/27 07:06:53;;;;;;;8.93;2.25;;;;;;;;;;5047337;28;20566;-72
2022/05/27 07:09:20;;;;;;;7.35;2.33;;;;;;;;;;5048848;28;20674;-72
2022/05/27 07:11:47;;;;;;;8.75;2.63;;;;;;;;;;5046867;28;20181;-73
2022/05/27 07:14:13;;;;;;;4.07;1.70;;;;;;;;;;5048256;28;20220;-73
2022/05/27 07:16:39;;;;;;;8.43;2.45;;;;;;;;;;5041979;28;20470;-71
2022/05/27 07:19:04;;;;;;;11.38;3.15;;;;;;;;;;5053082;28;20694;-72
2022/05/27 07:21:29;;;;;;;10.05;2.58;;;;;;;;;;5051117;28;20181;-74
2022/05/27 07:23:55;;;;;;;5.40;2.20;;;;;;;;;;5044881;28;20221;-72
2022/05/27 07:26:24;;;;;;;14.35;3.25;;;;;;;;;;5049836;28;20176;-72
2022/05/27 07:28:49;;;;;;;9.80;2.15;;;;;;;;;;5046613;28;20169;-72
2022/05/27 07:31:16;;;;;;;8.98;2.60;;;;;;;;;;5033683;28;20643;-72
2022/05/27 07:33:41;;;;;;;6.82;1.95;;;;;;;;;;5052759;28;20217;-72
2022/05/27 07:36:07;;;;;;;5.07;1.80;;;;;;;;;;5051478;28;20594;-72
2022/05/27 07:38:32;;;;;;;8.43;2.40;;;;;;;;;;5035361;28;20492;-72
2022/05/27 07:40:57;;;;;;;10.52;2.13;;;;;;;;;;5050966;28;20532;-72
2022/05/27 07:43:22;;;;;;;8.30;2.40;;;;;;;;;;5039448;28;20225;-72
2022/05/27 07:45:49;;;;;;;9.60;2.58;;;;;;;;;;5052506;28;20407;-72
2022/05/27 07:48:14;;;;;;;6.18;2.25;;;;;;;;;;5052649;28;20173;-71
2022/05/27 07:50:39;;;;;;;11.60;2.38;;;;;;;;;;5053083;28;20182;-72
2022/05/27 07:53:04;;;;;;;8.17;2.73;;;;;;;;;;5052262;28;20322;-72
2022/05/27 07:55:30;;;;;;;8.85;2.17;;;;;;;;;;5052760;28;20434;-72
2022/05/27 07:57:55;;;;;;;10.25;2.20;;;;;;;;;;5052621;28;20188;-72
2022/05/27 08:00:23;;;;;;;9.30;2.42;;;;;;;;;;5051076;28;20604;-72
2022/05/27 08:02:48;;;;;;;7.63;2.20;;;;;;;;;;5051214;28;20201;-72
2022/05/27 08:05:15;;;;;;;9.05;2.60;;;;;;;;;;5051066;28;20683;-72
2022/05/27 08:07:40;;;;;;;11.10;2.60;;;;;;;;;;5050652;28;20177;-72
2022/05/27 08:10:06;;;;;;;8.38;2.38;;;;;;;;;;5050821;28;20191;-72
2022/05/27 08:12:31;;;;;;;7.55;1.85;;;;;;;;;;5051746;28;20695;-71
2022/05/27 08:14:56;;;;;;;8.10;2.63;;;;;;;;;;5047277;28;20571;-71
2022/05/27 08:17:22;;;;;;;6.10;1.90;;;;;;;;;;5048511;28;20188;-71
2022/05/27 08:19:47;;;;;;;8.75;2.00;;;;;;;;;;5048523;28;20200;-72
2022/05/27 08:22:12;;;;;;;8.52;2.42;;;;;;;;;;5051870;28;20643;-72
2022/05/27 08:24:37;;;;;;;9.10;2.38;;;;;;;;;;5052577;28;20264;-72
2022/05/27 08:27:03;;;;;;;5.87;1.93;;;;;;;;;;5051728;28;20173;-72
2022/05/27 08:29:29;;;;;;;6.57;2.13;;;;;;;;;;5037697;28;20414;-72
2022/05/27 08:31:54;;;;;;;10.57;2.50;;;;;;;;;;5032007;28;20185;-72
2022/05/27 08:39:47;;;;;;;5.63;1.95;;;;;;;;;;5050376;28;20212;-71
2022/05/27 08:42:27;;;;;;;9.52;3.05;;;;;;;;;;5051122;28;20546;-72
2022/05/27 08:45:08;;;;;;;11.40;2.30;;;;;;;;;;5052378;28;20208;-72
2022/05/27 08:47:39;;;;;;;6.53;2.28;;;;;;;;;;5049528;28;20252;-72
2022/05/27 08:50:22;;;;;;;9.85;2.78;;;;;;;;;;5036872;28;20178;-72
2022/05/27 08:52:54;;;;;;;8.48;2.95;;;;;;;;;;5045939;28;20248;-72
2022/05/27 09:00:55;;;;;;;8.40;2.40;;;;;;;;;;5050761;28;20266;-72
2022/05/27 09:03:21;;;;;;;8.52;2.47;;;;;;;;;;5051664;28;20687;-71
2022/05/27 09:06:04;;;;;;;7.38;2.20;;;;;;;;;;5049729;28;20199;-72
2022/05/27 09:08:30;;;;;;;11.38;2.25;;;;;;;;;;5050233;28;20208;-72
2022/05/27 09:11:07;;;;;;;8.48;2.25;;;;;;;;;;5050700;28;20307;-71
2022/05/27 09:13:35;;;;;;;7.70;2.28;;;;;;;;;;5051617;28;20213;-72
2022/05/27 09:16:04;;;;;;;6.20;2.20;;;;;;;;;;5033947;28;20273;-71
2022/05/27 09:18:48;;;;;;;6.55;2.03;;;;;;;;;;5049474;28;20204;-72
2022/05/27 09:21:26;;;;;;;9.80;3.85;;;;;;;;;;5049417;28;20206;-71
2022/05/27 09:23:51;;;;;;;8.98;3.55;;;;;;;;;;5051043;28;20600;-72
2022/05/27 09:26:19;;;;;;;5.68;2.20;;;;;;;;;;5050360;28;20253;-72
2022/05/27 09:28:44;;;;;;;8.13;2.90;;;;;;;;;;5049793;28;20176;-71
2022/05/27 09:31:10;;;;;;;8.02;3.20;;;;;;;;;;5051007;28;20174;-72
2022/05/27 09:33:36;;;;;;;5.10;2.75;;;;;;;;;;5051526;28;20209;-72
2022/05/27 09:36:14;;;;;;;9.52;2.58;;;;;;;;;;5049534;28;20174;-72
2022/05/27 09:38:47;;;;;;;9.07;2.63;;;;;;;;;;5048237;28;20181;-72
2022/05/27 09:41:23;;;;;;;14.05;3.10;;;;;;;;;;5050582;28;20197;-72
2022/05/27 09:43:51;;;;;;;10.48;2.88;;;;;;;;;;5042913;28;20200;-72
2022/05/27 09:46:30;;;;;;;8.68;2.78;;;;;;;;;;5047253;28;20184;-72
2022/05/27 09:48:58;;;;;;;8.52;2.05;;;;;;;;;;5049754;28;20260;-71
2022/05/27 09:51:25;;;;;;;7.63;2.75;;;;;;;;;;5050397;28;20659;-71
2022/05/27 09:53:52;;;;;;;7.28;2.45;;;;;;;;;;5049939;28;20205;-71
2022/05/27 09:56:34;;;;;;;8.75;2.95;;;;;;;;;;5049553;28;20177;-71
2022/05/27 09:59:16;;;;;;;9.60;3.33;;;;;;;;;;5048876;28;20180;-71
2022/05/27 10:01:42;;;;;;;5.55;1.92;;;;;;;;;;5049222;28;20548;-71
2022/05/27 10:04:12;;;;;;;7.78;3.10;;;;;;;;;;5054028;28;20216;-72
2022/05/27 10:06:37;;;;;;;11.13;2.40;;;;;;;;;;5053181;28;20264;-72
2022/05/27 10:09:04;;;;;;;8.73;2.30;;;;;;;;;;5036424;28;20214;-72
2022/05/27 10:11:33;;;;;;;7.63;2.00;;;;;;;;;;5052724;28;20207;-72
2022/05/27 10:14:17;;;;;;;7.75;2.53;;;;;;;;;;5054547;28;20197;-72
2022/05/27 10:16:43;;;;;;;10.85;2.60;;;;;;;;;;5048843;28;20181;-72
2022/05/27 10:19:13;;;;;;;7.03;2.10;;;;;;;;;;5053774;28;20202;-70
2022/05/27 10:22:11;;;;;;;9.00;2.30;;;;;;;;;;5053175;28;20558;-70
2022/05/27 10:24:40;;;;;;;8.52;3.40;;;;;;;;;;5008704;28;20642;-72
2022/05/27 10:27:17;;;;;;;10.05;2.70;;;;;;;;;;5054043;28;20178;-71
2022/05/27 10:29:51;;;;;;;11.50;2.70;;;;;;;;;;5052596;28;20177;-71
2022/05/27 10:32:26;;;;;;;11.15;2.70;;;;;;;;;;5043071;28;20237;-72
2022/05/27 10:34:51;;;;;;;6.10;2.33;;;;;;;;;;5049798;28;20168;-71
2022/05/27 10:37:16;;;;;;;11.30;3.47;;;;;;;;;;5053364;28;20200;-71
2022/05/27 10:39:51;;;;;;;7.57;2.60;;;;;;;;;;5053879;28;20194;-71
2022/05/27 10:42:35;;;;;;;12.35;3.33;;;;;;;;;;5051964;28;20181;-71
2022/05/27 10:45:05;;;;;;;10.77;3.10;;;;;;;;;;5053208;28;20176;-71
2022/05/27 10:47:49;;;;;;;7.93;2.92;;;;;;;;;;5051737;28;20560;-71
2022/05/27 10:50:14;;;;;;;11.23;3.30;;;;;;;;;;5053119;28;20226;-71
2022/05/27 10:52:40;;;;;;;14.63;3.40;;;;;;;;;;5051010;28;21203;-72
2022/05/27 10:55:11;;;;;;;11.50;2.70;;;;;;;;;;5054156;28;20414;-73
2022/05/27 11:03:29;;;;;;;12.82;3.90;;;;;;;;;;5050751;28;20573;-71
2022/05/27 11:06:17;;;;;;;13.23;3.40;;;;;;;;;;5051186;28;20173;-71
2022/05/27 11:09:00;;;;;;;8.85;3.15;;;;;;;;;;5038716;28;20244;-72
2022/05/27 11:11:34;;;;;;;8.88;3.08;;;;;;;;;;5039925;28;20280;-71
2022/05/27 11:17:00;;;;;;;10.95;2.70;;;;;;;;;;5054397;28;20209;-72
2022/05/27 11:19:29;;;;;;;9.20;2.80;;;;;;;;;;5052623;28;20686;-71
2022/05/27 11:21:54;;;;;;;8.68;2.38;;;;;;;;;;5049800;28;20174;-73
2022/05/27 11:24:38;;;;;;;7.75;2.40;;;;;;;;;;5053433;28;20202;-71
2022/05/27 11:27:09;;;;;;;8.55;2.80;;;;;;;;;;5051950;28;20435;-71
2022/05/27 11:29:34;;;;;;;11.40;2.90;;;;;;;;;;5040160;28;20189;-71
2022/05/27 11:32:02;;;;;;;5.72;2.00;;;;;;;;;;5053481;28;20178;-71
2022/05/27 11:34:30;;;;;;;6.78;2.45;;;;;;;;;;5052350;28;20645;-71
2022/05/27 11:37:14;;;;;;;10.40;3.15;;;;;;;;;;5049894;28;20181;-72
2022/05/27 11:39:55;;;;;;;6.90;2.35;;;;;;;;;;5051850;28;20291;-71
2022/05/27 11:42:29;;;;;;;7.95;2.20;;;;;;;;;;5046363;28;20256;-71
2022/05/27 11:45:03;;;;;;;11.70;2.83;;;;;;;;;;5045025;28;20215;-71
2022/05/27 11:47:37;;;;;;;7.85;2.30;;;;;;;;;;5049490;28;20652;-71
2022/05/27 11:50:05;;;;;;;11.05;2.17;;;;;;;;;;5052085;28;20532;-70
2022/05/27 11:52:33;;;;;;;8.88;1.92;;;;;;;;;;5044382;28;20516;-71
2022/05/27 11:55:01;;;;;;;6.22;2.38;;;;;;;;;;5053380;28;20180;-71
2022/05/27 11:57:55;;;;;;;8.35;1.95;;;;;;;;;;5047823;28;20201;-71
2022/05/27 12:00:24;;;;;;;7.03;1.92;;;;;;;;;;5032550;28;20278;-72
2022/05/27 12:02:49;;;;;;;5.80;1.70;;;;;;;;;;5049888;28;20582;-71
2022/05/27 12:05:17;;;;;;;8.38;3.17;;;;;;;;;;5051130;28;20205;-73
2022/05/27 12:07:55;;;;;;;5.53;1.65;;;;;;;;;;5051265;28;20170;-72
2022/05/27 12:10:25;;;;;;;7.85;2.00;;;;;;;;;;5049614;28;20174;-72
2022/05/27 12:13:08;;;;;;;8.27;2.25;;;;;;;;;;5047494;28;20256;-72
2022/05/27 12:15:38;;;;;;;7.30;2.10;;;;;;;;;;5050054;28;20173;-71
2022/05/27 12:18:07;;;;;;;8.35;2.20;;;;;;;;;;5050366;28;20200;-71
2022/05/27 12:20:34;;;;;;;6.10;1.98;;;;;;;;;;5050856;28;20299;-71
2022/05/27 12:23:02;;;;;;;5.82;2.05;;;;;;;;;;5052246;28;20604;-71
2022/05/27 12:25:32;;;;;;;10.45;2.33;;;;;;;;;;5050361;28;20596;-72
2022/05/27 12:27:59;;;;;;;6.28;1.80;;;;;;;;;;5050847;28;20681;-71
2022/05/27 12:30:30;;;;;;;8.35;2.17;;;;;;;;;;5044274;28;20174;-71
2022/05/27 12:32:56;;;;;;;8.93;2.10;;;;;;;;;;5051999;28;20271;-71
2022/05/27 12:35:22;;;;;;;6.50;1.98;;;;;;;;;;5053080;28;20177;-72
2022/05/27 12:37:49;;;;;;;6.00;1.57;;;;;;;;;;5050384;28;20182;-71
2022/05/27 12:40:22;;;;;;;3.25;1.75;;;;;;;;;;5051776;28;20447;-71
2022/05/27 12:42:51;;;;;;;9.15;2.15;;;;;;;;;;5048896;28;20185;-71
2022/05/27 12:45:36;;;;;;;4.53;1.52;;;;;;;;;;5037466;28;20651;-73
2022/05/27 12:48:02;;;;;;;7.60;2.10;;;;;;;;;;5050865;28;20178;-72
2022/05/27 12:50:31;;;;;;;6.25;1.92;;;;;;;;;;5045397;28;20191;-71
2022/05/27 12:52:58;;;;;;;8.55;1.95;;;;;;;;;;5052088;28;20507;-71
2022/05/27 12:55:42;;;;;;;6.43;2.10;;;;;;;;;;5050032;28;20190;-71
2022/05/27 13:00:56;;;;;;;5.60;1.77;;;;;;;;;;5050400;28;20285;-71
2022/05/27 13:03:34;;;;;;;4.65;1.40;;;;;;;;;;5050086;28;20197;-71
2022/05/27 13:06:11;;;;;;;8.82;2.10;;;;;;;;;;5044789;28;20755;-72
2022/05/27 13:08:55;;;;;;;6.53;1.80;;;;;;;;;;5048924;28;20223;-71
2022/05/27 13:11:23;;;;;;;10.02;1.80;;;;;;;;;;5051473;28;20543;-72
2022/05/27 13:14:12;;;;;;;7.40;2.08;;;;;;;;;;5049675;28;20281;-71
2022/05/27 13:16:43;;;;;;;11.05;3.65;;;;;;;;;;5032212;28;20182;-71
2022/05/27 13:19:19;;;;;;;12.65;2.55;;;;;;;;;;5046734;28;20177;-71
2022/05/27 13:21:52;;;;;;;8.02;2.42;;;;;;;;;;5043659;28;20194;-71
2022/05/27 13:24:17;;;;;;;6.70;2.60;;;;;;;;;;5049674;28;20197;-72
2022/05/27 13:26:51;;;;;;;6.30;2.10;;;;;;;;;;5050304;28;20179;-72
2022/05/27 13:29:25;;;;;;;8.75;1.85;;;;;;;;;;5047217;28;20411;-72
2022/05/27 13:32:09;;;;;;;6.90;1.95;;;;;;;;;;5049848;28;20173;-71
2022/05/27 13:34:37;;;;;;;8.90;2.20;;;;;;;;;;5031410;28;20177;-71
2022/05/27 13:37:04;;;;;;;7.35;2.17;;;;;;;;;;5048862;28;20585;-72
2022/05/27 13:39:39;;;;;;;5.70;2.00;;;;;;;;;;5049220;28;20193;-71
2022/05/27 13:42:05;;;;;;;5.85;2.08;;;;;;;;;;5035878;28;20436;-71
2022/05/27 13:44:35;;;;;;;6.80;1.90;;;;;;;;;;5050950;28;20173;-72
2022/05/27 13:47:01;;;;;;;6.65;1.48;;;;;;;;;;5049577;28;20205;-71
2022/05/27 13:49:37;;;;;;;5.00;1.58;;;;;;;;;;5051059;28;20227;-71
2022/05/27 13:52:10;;;;;;;9.32;2.38;;;;;;;;;;5048005;28;20184;-71
2022/05/27 13:54:38;;;;;;;10.23;2.38;;;;;;;;;;5042748;28;20197;-72
2022/05/27 13:57:05;;;;;;;10.73;2.15;;;;;;;;;;5049232;28;20219;-72
2022/05/27 13:59:36;;;;;;;10.73;3.00;;;;;;;;;;5050472;28;20196;-73
2022/05/27 14:02:02;;;;;;;14.40;3.03;;;;;;;;;;5050073;28;20564;-71
2022/05/27 14:04:28;;;;;;;11.20;2.65;;;;;;;;;;5047865;28;20205;-72
2022/05/27 14:06:53;;;;;;;6.05;2.53;;;;;;;;;;5048958;28;20247;-72
2022/05/27 14:09:21;;;;;;;4.18;1.45;;;;;;;;;;5048259;28;20884;-71
2022/05/27 14:11:49;;;;;;;8.60;1.98;;;;;;;;;;5049642;28;20227;-72
2022/05/27 14:14:15;;;;;;;6.80;1.90;;;;;;;;;;5030353;28;20198;-72
2022/05/27 14:16:42;;;;;;;7.47;2.17;;;;;;;;;;5047765;28;20246;-72
2022/05/27 14:19:11;;;;;;;5.47;1.58;;;;;;;;;;5045126;28;20174;-71
2022/05/27 14:24:26;;;;;;;4.35;1.80;;;;;;;;;;5049875;28;20208;-72
2022/05/27 14:26:51;;;;;;;9.35;2.05;;;;;;;;;;5030539;28;20174;-72
2022/05/27 14:29:19;;;;;;;10.93;2.85;;;;;;;;;;5050454;28;20673;-71
2022/05/27 14:31:44;;;;;;;6.97;1.90;;;;;;;;;;5049469;28;20228;-72
2022/05/27 14:34:11;;;;;;;8.17;2.00;;;;;;;;;;5050101;28;20687;-71
2022/05/27 14:36:41;;;;;;;6.15;1.85;;;;;;;;;;5049436;28;20415;-72
2022/05/27 14:39:07;;;;;;;7.95;1.95;;;;;;;;;;5047681;28;20170;-71
2022/05/27 14:41:36;;;;;;;10.95;2.30;;;;;;;;;;5049110;28;20189;-72
2022/05/27 14:44:01;;;;;;;7.97;1.83;;;;;;;;;;5051369;28;20202;-70
2022/05/27 14:46:29;;;;;;;6.20;2.13;;;;;;;;;;5032416;28;20181;-71
2022/05/27 14:48:58;;;;;;;5.85;2.35;;;;;;;;;;5050549;28;20187;-71
2022/05/27 14:51:35;;;;;;;7.10;2.40;;;;;;;;;;5054043;28;20239;-71
2022/05/27 14:54:15;;;;;;;5.55;2.03;;;;;;;;;;5053337;28;20213;-70
2022/05/27 14:56:40;;;;;;;4.82;1.95;;;;;;;;;;5053755;28;20181;-71
2022/05/27 14:59:06;;;;;;;4.30;1.20;;;;;;;;;;5051997;28;20180;-70
2022/05/27 15:01:40;;;;;;;5.60;1.45;;;;;;;;;;5042723;28;20429;-71
2022/05/27 15:04:08;;;;;;;9.20;2.35;;;;;;;;;;5048059;28;20675;-70
2022/05/27 15:06:35;;;;;;;9.70;1.95;;;;;;;;;;5045714;28;20187;-72
2022/05/27 15:09:07;;;;;;;6.28;1.83;;;;;;;;;;5053336;28;20166;-71
2022/05/27 15:11:33;;;;;;;7.82;2.88;;;;;;;;;;5052981;28;20250;-70
2022/05/27 15:14:00;;;;;;;9.10;2.30;;;;;;;;;;5033860;28;20679;-71
2022/05/27 15:16:30;;;;;;;5.57;1.95;;;;;;;;;;5052457;28;20174;-71
2022/05/27 15:19:01;;;;;;;6.80;1.90;;;;;;;;;;5053734;28;20170;-71
2022/05/27 15:21:55;;;;;;;6.25;2.08;;;;;;;;;;5052228;28;20300;-72
2022/05/27 15:24:50;;;;;;;6.10;1.90;;;;;;;;;;5029759;28;20212;-72